ORD weather

Chicago O'Hare International Airport
Chicago, Illinois, United States

Public forecast

Using degrees Fahrenheit for public forecast. Weather courtesy of forecast.io.

METAR (pilot weather report)

Retrieved 2017/02/24 13:51 UTC (56 minutes ago):

KORD 241351Z 02013KT 5SM BR OVC004 04/03 A2949

TAF (pilot weather forecast)

Retrieved 2017/02/24 12:42 UTC (2 hours ago):

TAF KORD 241140Z 2412/2518 04011KT 4SM -DZ BR VCSH OVC003 TEMPO 2412/2414 3SM -SHRA OVC005 FM241400 03009KT 1 1/2SM -DZ BR OVC003 FM242100 34006KT 3SM BR VCSH OVC004 FM242300 28009KT P6SM BKN008 OVC015 FM250300 29012G18KT P6SM OVC020 TEMPO 2506/2508 3SM -RASN FM250800 29014G21KT 2SM -SN OVC015 FM251400 30018G26KT 2SM -SN OVC015 FM251700 30017G26KT P6SM OVC020